Time;durP1;ratioP1;P1;durP2;ratioP2;P2;SDS_P1;SDS_P2;PMS_P1;PMS_P2;Temp;Humidity;BMP_temperature;BMP_pressure;BME280_temperature;BME280_humidity;BME280_pressure;Samples;Min_cycle;Max_cycle;Signal;HPM_P1;HPM_P2
2021/01/05 00:00:18;;;;;;;5.93;5.23;;;;;;;2.91;100.00;101156.25;5013742;28;20208;-71
2021/01/05 00:02:44;;;;;;;5.97;5.37;;;;;;;2.95;100.00;101148.56;4998727;28;20212;-71
2021/01/05 00:05:10;;;;;;;5.40;4.50;;;;;;;2.96;100.00;101153.72;5013846;28;20188;-71
2021/01/05 00:07:35;;;;;;;6.63;5.43;;;;;;;2.88;100.00;101145.94;5031049;28;20185;-71
2021/01/05 00:10:02;;;;;;;6.03;5.43;;;;;;;2.99;100.00;101147.97;5014574;28;20195;-71
2021/01/05 00:12:27;;;;;;;6.30;5.70;;;;;;;2.81;100.00;101147.78;5002485;28;20255;-71
2021/01/05 00:14:53;;;;;;;6.27;5.67;;;;;;;2.97;100.00;101149.19;4994640;28;20191;-71
2021/01/05 00:17:19;;;;;;;6.60;5.80;;;;;;;3.05;100.00;101152.47;5002142;28;20220;-71
2021/01/05 00:19:46;;;;;;;6.73;6.03;;;;;;;3.03;100.00;101151.84;5010910;28;20224;-71
2021/01/05 00:22:15;;;;;;;7.50;6.70;;;;;;;3.07;100.00;101155.75;4962539;28;20227;-71
2021/01/05 00:24:40;;;;;;;7.07;6.13;;;;;;;3.07;100.00;101150.41;4977836;28;20181;-72
2021/01/05 00:27:06;;;;;;;8.57;6.77;;;;;;;3.09;100.00;101148.31;4977346;28;20247;-71
2021/01/05 00:29:32;;;;;;;6.67;5.97;;;;;;;3.00;100.00;101144.22;5010603;28;20232;-71
2021/01/05 00:32:06;;;;;;;7.70;6.87;;;;;;;3.05;100.00;101144.41;5025867;28;20247;-71
2021/01/05 00:34:32;;;;;;;8.13;7.00;;;;;;;3.02;100.00;101150.19;5026701;28;20197;-71
2021/01/05 00:37:00;;;;;;;7.40;6.70;;;;;;;3.07;100.00;101150.41;4993630;28;20252;-71
2021/01/05 00:39:26;;;;;;;6.90;6.20;;;;;;;2.83;100.00;101148.41;4994294;28;20682;-70
2021/01/05 00:41:51;;;;;;;7.10;6.40;;;;;;;2.93;100.00;101154.19;4993520;28;20232;-70
2021/01/05 00:44:17;;;;;;;6.87;6.17;;;;;;;3.01;100.00;101153.94;5009901;28;20185;-71
2021/01/05 00:46:45;;;;;;;7.77;6.93;;;;;;;2.87;100.00;101162.22;5009545;28;20596;-71
2021/01/05 00:49:13;;;;;;;8.00;6.80;;;;;;;2.94;100.00;101160.34;5010489;28;20185;-71
2021/01/05 00:51:39;;;;;;;7.00;6.03;;;;;;;3.07;100.00;101161.13;4993417;28;20232;-71
2021/01/05 00:54:06;;;;;;;7.67;6.87;;;;;;;3.11;100.00;101151.63;4978188;28;20188;-71
2021/01/05 00:56:32;;;;;;;7.97;7.00;;;;;;;3.08;100.00;101162.78;4993618;28;20221;-71
2021/01/05 00:59:00;;;;;;;7.77;6.97;;;;;;;2.99;100.00;101158.69;4994103;28;20197;-71
2021/01/05 01:01:29;;;;;;;7.73;6.50;;;;;;;3.01;100.00;101155.81;5025638;28;20235;-71
2021/01/05 01:03:57;;;;;;;8.00;6.47;;;;;;;3.02;100.00;101157.44;5010654;28;20239;-71
2021/01/05 01:06:23;;;;;;;8.03;7.23;;;;;;;2.96;100.00;101164.47;5009065;28;20220;-71
2021/01/05 01:08:54;;;;;;;7.70;6.70;;;;;;;3.01;100.00;101159.28;5010399;28;20173;-71
2021/01/05 01:11:19;;;;;;;6.87;6.17;;;;;;;2.91;100.00;101164.28;5009747;28;20212;-71
2021/01/05 01:13:46;;;;;;;7.10;6.40;;;;;;;2.84;100.00;101163.47;5010657;28;20280;-71
2021/01/05 01:16:16;;;;;;;7.03;6.30;;;;;;;3.02;100.00;101165.47;4992996;28;20640;-71
2021/01/05 01:18:44;;;;;;;7.37;6.50;;;;;;;3.05;100.00;101163.19;4993660;28;20205;-71
2021/01/05 01:21:12;;;;;;;6.47;5.87;;;;;;;3.08;100.00;101160.09;4993020;28;20229;-71
2021/01/05 01:23:39;;;;;;;6.97;6.17;;;;;;;2.86;100.00;101165.97;4994713;28;20213;-71
2021/01/05 01:26:05;;;;;;;6.20;5.60;;;;;;;3.06;100.00;101154.94;4993715;28;20229;-71
2021/01/05 01:28:31;;;;;;;6.80;6.10;;;;;;;3.15;100.00;101158.19;4978249;28;20228;-71
2021/01/05 01:30:58;;;;;;;6.27;5.67;;;;;;;3.14;100.00;101153.88;4994029;28;20225;-71
2021/01/05 01:33:31;;;;;;;6.10;5.47;;;;;;;3.12;100.00;101162.13;5010272;28;20181;-71
2021/01/05 01:36:02;;;;;;;6.17;5.57;;;;;;;3.18;100.00;101163.97;4978237;28;20233;-71
2021/01/05 01:38:28;;;;;;;5.90;5.27;;;;;;;3.24;100.00;101156.94;4977935;28;20185;-71
2021/01/05 01:40:58;;;;;;;6.67;5.97;;;;;;;3.01;100.00;101161.16;4993295;28;20225;-71
2021/01/05 01:43:31;;;;;;;6.50;5.80;;;;;;;3.03;100.00;101148.38;4978610;28;20253;-71
2021/01/05 01:46:08;;;;;;;6.20;5.60;;;;;;;2.98;100.00;101151.66;4978461;28;20777;-71
2021/01/05 01:48:42;;;;;;;6.50;5.80;;;;;;;3.07;100.00;101159.25;4994937;28;20192;-70
2021/01/05 01:51:11;;;;;;;6.17;5.57;;;;;;;2.86;100.00;101153.38;4992774;28;20325;-71
2021/01/05 01:54:01;;;;;;;6.10;5.50;;;;;;;2.98;100.00;101157.03;4980555;28;20272;-71
2021/01/05 01:56:51;;;;;;;6.23;5.63;;;;;;;2.90;100.00;101157.25;4993040;28;20221;-71
2021/01/05 01:59:47;;;;;;;6.00;5.40;;;;;;;2.85;100.00;101161.63;4979936;28;20706;-71
2021/01/05 02:02:44;;;;;;;5.80;4.97;;;;;;;2.88;100.00;101153.16;5009292;28;20229;-71
2021/01/05 02:05:12;;;;;;;5.77;4.97;;;;;;;2.89;100.00;101152.91;4992909;28;20196;-71
2021/01/05 02:07:50;;;;;;;6.17;5.57;;;;;;;2.81;100.00;101153.16;4978470;28;20204;-71
2021/01/05 02:10:34;;;;;;;5.80;5.20;;;;;;;2.84;100.00;101160.78;4979732;28;20244;-71
2021/01/05 02:13:24;;;;;;;6.03;5.43;;;;;;;2.68;100.00;101150.50;5009118;28;20177;-71
2021/01/05 02:15:58;;;;;;;6.77;5.83;;;;;;;2.62;100.00;101149.69;4978691;28;20237;-71
2021/01/05 02:18:37;;;;;;;5.67;5.13;;;;;;;2.85;100.00;101157.06;4977319;28;20189;-71
2021/01/05 02:21:07;;;;;;;6.07;5.47;;;;;;;2.98;100.00;101148.97;4992797;28;20298;-71
2021/01/05 02:23:46;;;;;;;6.30;5.70;;;;;;;3.08;100.00;101146.69;4978316;28;20188;-71
2021/01/05 02:26:18;;;;;;;6.40;5.80;;;;;;;2.82;100.00;101145.94;4992068;28;20240;-71
2021/01/05 02:28:51;;;;;;;5.63;5.13;;;;;;;3.02;100.00;101150.19;4993734;28;20186;-71
2021/01/05 02:31:36;;;;;;;5.83;5.23;;;;;;;3.00;100.00;101141.53;4976972;28;20231;-71
2021/01/05 02:34:15;;;;;;;5.93;5.30;;;;;;;3.07;100.00;101139.66;4992796;28;20193;-71
2021/01/05 02:37:19;;;;;;;5.57;5.07;;;;;;;2.84;100.00;101139.34;4977938;28;20230;-71
2021/01/05 02:40:30;;;;;;;5.63;5.13;;;;;;;2.84;100.00;101138.50;4993450;28;20689;-71
2021/01/05 02:43:58;;;;;;;6.30;5.00;;;;;;;2.70;100.00;101142.25;4985088;28;20252;-71
2021/01/05 02:47:20;;;;;;;5.60;4.93;;;;;;;2.85;100.00;101145.53;4972645;28;20652;-71
2021/01/05 02:50:30;;;;;;;5.30;4.80;;;;;;;3.01;100.00;101140.53;4953000;28;20252;-71
2021/01/05 02:53:48;;;;;;;5.30;4.80;;;;;;;2.87;100.00;101136.22;5007074;28;20192;-71
2021/01/05 02:56:57;;;;;;;5.30;4.80;;;;;;;2.68;100.00;101129.06;4981240;28;20228;-71
2021/01/05 03:00:03;;;;;;;6.40;5.10;;;;;;;2.67;100.00;101138.16;4998809;28;20228;-71
2021/01/05 03:02:59;;;;;;;5.50;5.00;;;;;;;2.83;100.00;101129.63;5048820;28;20604;-71
2021/01/05 03:05:47;;;;;;;5.57;5.03;;;;;;;2.77;100.00;101121.63;5036010;28;20243;-71
2021/01/05 03:08:31;;;;;;;6.23;5.30;;;;;;;2.57;100.00;101125.38;5021830;28;20203;-70
2021/01/05 03:11:15;;;;;;;6.33;5.67;;;;;;;2.68;100.00;101134.41;5012139;28;20752;-71
2021/01/05 03:14:03;;;;;;;6.40;5.80;;;;;;;2.78;100.00;101129.47;5009854;28;20247;-71
2021/01/05 03:16:54;;;;;;;6.30;5.67;;;;;;;2.76;100.00;101128.00;5017593;28;20262;-71
2021/01/05 03:19:54;;;;;;;6.50;5.77;;;;;;;2.73;100.00;101129.25;5018768;28;20247;-70
2021/01/05 03:23:04;;;;;;;6.63;5.77;;;;;;;2.86;100.00;101115.00;4982649;28;20218;-71
2021/01/05 03:25:51;;;;;;;9.23;6.40;;;;;;;2.70;100.00;101127.00;5016448;28;20259;-71
2021/01/05 03:28:36;;;;;;;6.30;5.63;;;;;;;2.66;100.00;101126.81;5005026;28;20223;-71
2021/01/05 03:31:27;;;;;;;8.43;6.30;;;;;;;2.69;100.00;101125.38;5031372;28;20246;-71
2021/01/05 03:34:11;;;;;;;8.03;6.87;;;;;;;2.74;100.00;101128.22;5031467;28;20676;-71
2021/01/05 03:36:56;;;;;;;7.83;6.90;;;;;;;2.83;100.00;101126.94;5031103;28;20262;-71
2021/01/05 03:39:40;;;;;;;9.27;7.33;;;;;;;2.90;100.00;101127.75;5031566;28;20299;-71
2021/01/05 03:42:34;;;;;;;6.50;5.83;;;;;;;2.84;100.00;101128.63;4961069;28;20221;-71
2021/01/05 03:45:28;;;;;;;7.60;6.60;;;;;;;2.97;100.00;101133.09;5010537;28;20608;-71
2021/01/05 03:48:14;;;;;;;6.87;6.13;;;;;;;3.09;100.00;101137.59;5012829;28;20200;-71
2021/01/05 03:50:59;;;;;;;8.17;6.43;;;;;;;3.04;100.00;101124.00;4997559;28;20234;-71
2021/01/05 03:53:43;;;;;;;8.53;6.07;;;;;;;3.03;100.00;101132.25;5026057;28;20704;-71
2021/01/05 03:56:43;;;;;;;7.47;6.67;;;;;;;3.02;100.00;101126.06;4981944;28;20317;-71
2021/01/05 03:59:47;;;;;;;8.40;6.30;;;;;;;3.04;100.00;101129.38;4952018;29;20309;-71
2021/01/05 04:02:32;;;;;;;9.17;6.77;;;;;;;3.02;100.00;101136.78;4924967;29;20225;-71
2021/01/05 04:04:57;;;;;;;7.77;6.37;;;;;;;2.96;100.00;101134.94;4987425;28;20200;-71
2021/01/05 04:07:25;;;;;;;9.90;7.53;;;;;;;2.87;100.00;101128.16;4993770;28;20224;-71
2021/01/05 04:09:53;;;;;;;8.67;6.87;;;;;;;3.06;100.00;101132.66;5011794;28;20172;-71
2021/01/05 04:12:18;;;;;;;7.87;6.70;;;;;;;3.20;100.00;101143.09;4990963;28;20217;-71
2021/01/05 04:14:44;;;;;;;8.90;7.20;;;;;;;3.23;100.00;101131.97;5010419;28;20192;-71
2021/01/05 04:17:10;;;;;;;7.90;6.47;;;;;;;3.07;100.00;101134.28;5026768;28;20224;-71
2021/01/05 04:19:38;;;;;;;9.13;7.23;;;;;;;3.14;100.00;101129.75;4995770;28;20215;-71
2021/01/05 04:22:04;;;;;;;9.20;6.53;;;;;;;3.21;100.00;101133.22;5011099;28;20228;-71
2021/01/05 04:24:34;;;;;;;9.43;7.43;;;;;;;3.16;100.00;101141.06;4979765;28;20188;-71
2021/01/05 04:27:00;;;;;;;10.07;7.20;;;;;;;3.22;100.00;101132.16;4987368;28;20721;-71
2021/01/05 04:29:25;;;;;;;9.93;6.83;;;;;;;3.04;100.00;101139.25;4976838;28;20182;-70
2021/01/05 04:31:51;;;;;;;10.43;7.20;;;;;;;3.16;100.00;101133.03;5002369;28;20640;-71
2021/01/05 04:34:16;;;;;;;10.57;7.40;;;;;;;3.21;100.00;101139.41;4990941;28;20192;-72
2021/01/05 04:36:42;;;;;;;10.67;7.93;;;;;;;3.30;100.00;101137.31;4974045;28;20225;-71
2021/01/05 04:39:08;;;;;;;9.83;7.43;;;;;;;3.10;100.00;101140.06;4975508;28;20344;-71
2021/01/05 04:41:51;;;;;;;10.20;7.40;;;;;;;3.09;100.00;101142.97;4990298;28;20217;-71
2021/01/05 04:44:16;;;;;;;10.87;7.70;;;;;;;3.05;100.00;101141.75;4983855;28;20190;-71
2021/01/05 04:46:52;;;;;;;12.90;7.90;;;;;;;3.12;100.00;101153.28;5006818;28;20217;-71
2021/01/05 04:49:40;;;;;;;11.70;7.57;;;;;;;2.89;100.00;101147.56;4990676;28;20193;-71
2021/01/05 04:52:12;;;;;;;10.73;7.30;;;;;;;2.95;100.00;101135.16;4990062;28;20307;-71
2021/01/05 04:54:54;;;;;;;9.60;7.17;;;;;;;2.93;100.00;101138.09;4974681;28;20187;-71
2021/01/05 04:57:23;;;;;;;9.53;6.93;;;;;;;2.96;100.00;101137.63;4974331;28;20304;-71
2021/01/05 04:59:54;;;;;;;11.07;7.07;;;;;;;2.90;100.00;101143.03;4974773;28;20627;-71
2021/01/05 05:02:30;;;;;;;10.47;7.13;;;;;;;2.92;100.00;101141.78;4974589;28;20321;-72
2021/01/05 05:05:25;;;;;;;13.37;7.87;;;;;;;2.94;100.00;101144.25;5006626;28;20232;-71
2021/01/05 05:08:30;;;;;;;11.83;7.43;;;;;;;2.80;100.00;101148.84;5026063;28;20225;-71
2021/01/05 05:11:03;;;;;;;10.80;7.97;;;;;;;2.77;100.00;101138.53;4989838;28;20928;-71
2021/01/05 05:13:35;;;;;;;11.47;7.70;;;;;;;2.88;100.00;101147.78;4974401;28;20181;-71
2021/01/05 05:16:19;;;;;;;15.23;9.07;;;;;;;2.73;100.00;101148.03;4973898;28;20308;-70
2021/01/05 05:19:06;;;;;;;11.87;8.10;;;;;;;2.74;100.00;101149.66;5006774;28;20255;-71
2021/01/05 05:21:52;;;;;;;12.17;7.90;;;;;;;2.92;100.00;101157.06;4989769;28;20747;-71
2021/01/05 05:24:42;;;;;;;11.17;7.87;;;;;;;2.79;100.00;101147.19;4975419;28;20273;-72
2021/01/05 05:27:07;;;;;;;12.13;8.67;;;;;;;2.97;100.00;101141.13;4989797;28;20615;-71
2021/01/05 05:29:56;;;;;;;12.73;8.67;;;;;;;3.02;100.00;101136.78;4991607;28;20261;-71
2021/01/05 05:32:28;;;;;;;10.57;7.50;;;;;;;3.02;100.00;101142.16;4990026;28;20312;-71
2021/01/05 05:34:59;;;;;;;10.97;7.60;;;;;;;3.04;100.00;101140.09;4966762;28;20193;-71
2021/01/05 05:37:33;;;;;;;11.07;8.83;;;;;;;3.06;100.00;101138.03;4969902;28;20226;-71
2021/01/05 05:40:01;;;;;;;12.27;8.27;;;;;;;3.25;100.00;101142.50;4987569;28;20256;-71
2021/01/05 05:42:48;;;;;;;13.47;8.00;;;;;;;3.34;100.00;101142.03;5005518;28;20675;-71
2021/01/05 05:45:17;;;;;;;12.17;7.80;;;;;;;3.12;100.00;101138.00;4999429;28;20592;-71
2021/01/05 05:47:59;;;;;;;11.47;8.13;;;;;;;3.29;100.00;101139.16;4989324;28;20193;-71
2021/01/05 05:50:36;;;;;;;10.57;8.47;;;;;;;3.24;100.00;101146.19;4972896;28;20688;-71
2021/01/05 05:53:05;;;;;;;13.53;8.20;;;;;;;3.20;100.00;101148.47;4982082;28;20182;-71
2021/01/05 05:55:45;;;;;;;12.23;8.67;;;;;;;3.31;100.00;101152.38;4985404;28;20297;-71
2021/01/05 05:58:13;;;;;;;13.37;8.60;;;;;;;3.22;100.00;101145.59;5002721;28;20206;-71
2021/01/05 06:00:49;;;;;;;12.83;8.73;;;;;;;3.23;100.00;101144.56;4986513;28;20257;-71
2021/01/05 06:03:16;;;;;;;12.63;8.87;;;;;;;3.24;100.00;101148.88;4987114;28;20233;-72
2021/01/05 06:05:46;;;;;;;15.80;10.23;;;;;;;3.20;100.00;101150.34;4970403;28;20284;-71
2021/01/05 06:08:13;;;;;;;16.83;11.07;;;;;;;3.29;100.00;101159.81;4974409;28;20205;-71
2021/01/05 06:10:38;;;;;;;13.80;9.37;;;;;;;3.24;100.00;101157.78;4981723;28;20210;-71
2021/01/05 06:13:04;;;;;;;15.27;9.80;;;;;;;3.21;100.00;101157.38;4993819;28;20267;-71
2021/01/05 06:15:33;;;;;;;16.50;10.23;;;;;;;3.16;100.00;101159.84;4976482;28;20224;-72
2021/01/05 06:18:06;;;;;;;13.23;9.30;;;;;;;3.22;100.00;101159.00;4994060;28;20236;-71
2021/01/05 06:20:31;;;;;;;15.37;9.97;;;;;;;3.04;100.00;101166.09;4994844;28;20707;-70
2021/01/05 06:22:59;;;;;;;13.13;9.63;;;;;;;2.96;100.00;101159.09;4979994;28;20185;-71
2021/01/05 06:25:25;;;;;;;13.90;9.93;;;;;;;3.14;100.00;101151.19;5012221;28;20189;-70
2021/01/05 06:27:53;;;;;;;14.60;9.83;;;;;;;3.21;100.00;101152.81;4993619;28;20186;-71
2021/01/05 06:30:19;;;;;;;17.00;11.60;;;;;;;3.38;100.00;101159.34;4992902;28;20181;-71
2021/01/05 06:32:47;;;;;;;16.57;10.00;;;;;;;3.27;100.00;101156.50;4960997;28;20201;-71
2021/01/05 06:35:15;;;;;;;17.13;12.00;;;;;;;3.29;100.00;101154.44;4975901;28;20210;-72
2021/01/05 06:37:43;;;;;;;17.23;11.07;;;;;;;3.29;100.00;101160.63;4977118;28;20177;-71
2021/01/05 06:40:10;;;;;;;15.10;10.50;;;;;;;3.41;100.00;101158.94;4998073;28;20224;-71
2021/01/05 06:42:36;;;;;;;15.63;10.00;;;;;;;3.38;100.00;101163.91;4975358;28;20263;-70
2021/01/05 06:45:07;;;;;;;18.17;10.47;;;;;;;3.29;100.00;101160.63;4976477;28;20189;-71
2021/01/05 06:47:32;;;;;;;16.30;11.27;;;;;;;3.27;100.00;101164.56;5027554;28;20228;-71
2021/01/05 06:49:58;;;;;;;15.57;10.37;;;;;;;3.30;100.00;101161.47;4986751;28;20207;-71
2021/01/05 06:52:25;;;;;;;14.43;10.20;;;;;;;3.38;100.00;101166.59;4994204;28;20220;-72
2021/01/05 06:54:56;;;;;;;15.10;10.53;;;;;;;3.44;100.00;101162.00;5027270;28;20224;-71
2021/01/05 06:57:22;;;;;;;15.20;10.67;;;;;;;3.18;100.00;101168.53;4993959;28;20252;-71
2021/01/05 06:59:49;;;;;;;14.63;10.40;;;;;;;3.16;100.00;101170.59;4978175;28;20204;-72
2021/01/05 07:02:15;;;;;;;15.77;11.53;;;;;;;3.31;100.00;101174.66;4990279;28;20233;-71
2021/01/05 07:04:41;;;;;;;18.07;11.57;;;;;;;3.20;100.00;101169.13;4990086;28;20565;-71
2021/01/05 07:07:07;;;;;;;15.53;11.20;;;;;;;3.02;100.00;101185.06;4990023;28;20222;-71
2021/01/05 07:09:32;;;;;;;16.63;12.47;;;;;;;2.93;100.00;101177.47;4991800;28;20182;-71
2021/01/05 07:11:58;;;;;;;16.43;11.93;;;;;;;3.05;100.00;101181.97;5005841;28;20213;-71
2021/01/05 07:14:25;;;;;;;19.13;12.07;;;;;;;3.07;100.00;101182.59;5012074;28;20181;-71
2021/01/05 07:16:53;;;;;;;16.93;11.97;;;;;;;3.16;100.00;101187.50;4992174;28;20710;-71
2021/01/05 07:19:19;;;;;;;17.57;12.73;;;;;;;3.27;100.00;101184.16;4998254;28;20690;-71
2021/01/05 07:21:44;;;;;;;15.67;11.00;;;;;;;3.28;100.00;101176.94;5030904;28;20251;-71
2021/01/05 07:24:15;;;;;;;16.63;12.20;;;;;;;3.21;100.00;101178.84;4998580;28;20212;-72
2021/01/05 07:26:50;;;;;;;17.83;12.43;;;;;;;3.30;100.00;101186.44;5014716;28;20224;-72
2021/01/05 07:29:19;;;;;;;16.23;11.17;;;;;;;3.27;100.00;101188.72;4999777;28;20188;-71
2021/01/05 07:31:45;;;;;;;14.77;11.30;;;;;;;3.37;100.00;101181.03;4997971;28;20238;-72
2021/01/05 07:34:11;;;;;;;15.73;11.60;;;;;;;3.36;100.00;101187.44;4997866;28;20591;-72
2021/01/05 07:36:40;;;;;;;20.30;11.90;;;;;;;3.44;100.00;101186.16;5014543;28;20637;-71
2021/01/05 07:39:22;;;;;;;15.37;12.03;;;;;;;3.43;100.00;101192.56;5031024;28;20416;-72
2021/01/05 07:41:48;;;;;;;16.47;11.90;;;;;;;3.49;100.00;101194.38;5025259;28;20246;-71
2021/01/05 07:44:14;;;;;;;15.70;11.50;;;;;;;3.60;100.00;101195.59;5006111;28;20180;-72
2021/01/05 07:46:39;;;;;;;17.10;12.00;;;;;;;3.54;100.00;101191.91;4998926;28;20235;-71
2021/01/05 07:49:05;;;;;;;16.83;12.20;;;;;;;3.54;100.00;101191.06;4998456;28;20655;-71
2021/01/05 07:51:33;;;;;;;16.87;11.63;;;;;;;3.42;100.00;101192.78;5030361;28;20228;-72
2021/01/05 07:53:59;;;;;;;16.50;11.43;;;;;;;3.43;100.00;101199.81;5030850;28;20267;-72
2021/01/05 07:56:24;;;;;;;14.73;11.73;;;;;;;3.41;100.00;101192.97;5030086;28;20315;-71
2021/01/05 07:58:50;;;;;;;17.57;12.00;;;;;;;3.35;100.00;101194.69;4997999;28;20699;-71
2021/01/05 08:01:18;;;;;;;17.50;12.20;;;;;;;3.41;100.00;101190.28;5013536;28;20286;-71
2021/01/05 08:03:46;;;;;;;16.17;12.63;;;;;;;3.42;100.00;101191.97;5014613;28;20172;-71
2021/01/05 08:06:17;;;;;;;17.60;12.27;;;;;;;3.28;100.00;101198.41;5013713;28;20270;-71
2021/01/05 08:08:42;;;;;;;15.27;11.90;;;;;;;3.22;100.00;101196.56;4998192;28;20187;-71
2021/01/05 08:11:11;;;;;;;15.73;12.63;;;;;;;3.17;100.00;101194.53;5040288;28;20307;-71
2021/01/05 08:13:36;;;;;;;14.43;11.10;;;;;;;3.19;100.00;101199.69;5023536;28;20188;-71
2021/01/05 08:16:03;;;;;;;15.97;11.13;;;;;;;3.25;100.00;101201.53;5013267;28;20243;-71
2021/01/05 08:18:29;;;;;;;14.83;10.93;;;;;;;3.27;100.00;101207.50;4981141;28;20188;-71
2021/01/05 08:20:54;;;;;;;13.90;11.23;;;;;;;3.33;100.00;101204.78;5010349;28;20737;-71
2021/01/05 08:23:20;;;;;;;12.10;9.43;;;;;;;3.39;100.00;101208.47;4994270;28;20188;-72
2021/01/05 08:25:49;;;;;;;13.47;10.77;;;;;;;3.38;100.00;101212.22;5010805;28;20229;-71
2021/01/05 08:28:14;;;;;;;14.27;10.33;;;;;;;3.51;100.00;101210.28;4994373;28;20816;-71
2021/01/05 08:30:40;;;;;;;13.53;9.87;;;;;;;3.57;100.00;101210.28;5026200;28;20223;-72
2021/01/05 08:33:09;;;;;;;11.13;8.50;;;;;;;3.45;100.00;101209.28;5010872;28;20197;-71
2021/01/05 08:35:35;;;;;;;11.37;8.63;;;;;;;3.52;100.00;101203.91;5009708;28;20223;-72
2021/01/05 08:38:01;;;;;;;12.20;9.37;;;;;;;3.51;100.00;101202.22;4994415;28;20268;-72
2021/01/05 08:40:31;;;;;;;10.57;8.77;;;;;;;3.64;100.00;101213.72;4993319;28;20236;-71
2021/01/05 08:43:01;;;;;;;10.87;8.67;;;;;;;3.52;100.00;101217.31;4994418;28;20238;-71
2021/01/05 08:45:27;;;;;;;9.23;7.87;;;;;;;3.50;100.00;101209.47;5012237;28;20278;-71
2021/01/05 08:47:52;;;;;;;9.37;8.33;;;;;;;3.44;100.00;101213.03;5025407;28;20190;-71
2021/01/05 08:50:20;;;;;;;9.57;7.87;;;;;;;3.51;100.00;101221.84;4998658;28;20195;-71
2021/01/05 08:52:46;;;;;;;8.33;7.30;;;;;;;3.49;100.00;101221.22;5023337;28;20212;-72
2021/01/05 08:55:14;;;;;;;9.33;7.17;;;;;;;3.50;100.00;101216.72;5045815;28;20279;-74
2021/01/05 08:57:42;;;;;;;8.43;7.43;;;;;;;3.44;100.00;101223.75;5031328;28;20188;-74
2021/01/05 09:00:15;;;;;;;8.90;7.07;;;;;;;3.46;100.00;101219.00;5014755;28;20224;-71
2021/01/05 09:02:41;;;;;;;9.50;6.97;;;;;;;3.56;100.00;101216.66;5014670;28;20208;-71
2021/01/05 09:05:08;;;;;;;9.30;7.63;;;;;;;3.54;100.00;101212.56;5029626;28;20242;-72
2021/01/05 09:07:34;;;;;;;8.40;7.50;;;;;;;3.43;100.00;101210.53;5030593;28;20677;-72
2021/01/05 09:10:06;;;;;;;8.10;7.27;;;;;;;3.43;100.00;101221.28;5047689;28;20176;-71
2021/01/05 09:12:35;;;;;;;7.23;5.93;;;;;;;3.34;100.00;101216.38;4984607;28;20263;-73
2021/01/05 09:15:07;;;;;;;7.53;6.23;;;;;;;3.42;100.00;101218.81;4975585;28;20185;-72
2021/01/05 09:17:35;;;;;;;8.50;6.67;;;;;;;3.65;100.00;101218.06;5009833;28;20702;-71
2021/01/05 09:20:01;;;;;;;7.57;6.00;;;;;;;3.72;100.00;101226.09;5010330;28;20213;-72
2021/01/05 09:22:27;;;;;;;6.93;6.23;;;;;;;3.48;100.00;101224.16;5008339;28;20679;-71
2021/01/05 09:24:53;;;;;;;6.87;5.87;;;;;;;3.35;100.00;101220.69;4985364;28;20307;-71
2021/01/05 09:27:19;;;;;;;7.83;6.00;;;;;;;3.34;100.00;101224.41;5029268;28;20243;-71
2021/01/05 09:29:44;;;;;;;6.23;5.33;;;;;;;3.25;100.00;101217.63;5030322;28;20176;-71
2021/01/05 09:32:10;;;;;;;6.53;5.53;;;;;;;3.38;100.00;101225.63;4991919;28;20247;-72
2021/01/05 09:34:38;;;;;;;6.67;5.67;;;;;;;3.35;100.00;101226.91;4988621;28;20189;-72
2021/01/05 09:37:05;;;;;;;7.07;6.37;;;;;;;3.45;100.00;101225.38;4973715;28;20229;-71
2021/01/05 09:39:33;;;;;;;7.43;5.90;;;;;;;3.43;100.00;101225.84;4990313;28;20289;-71
2021/01/05 09:42:03;;;;;;;7.00;5.73;;;;;;;3.41;100.00;101225.19;4991404;28;20217;-72
2021/01/05 09:44:29;;;;;;;7.60;6.67;;;;;;;3.28;100.00;101225.25;4980301;28;20643;-72
2021/01/05 09:46:59;;;;;;;7.53;6.03;;;;;;;3.45;100.00;101222.69;5010634;28;20274;-71
2021/01/05 09:49:25;;;;;;;6.50;5.27;;;;;;;3.56;100.00;101222.03;4998032;28;20292;-71
2021/01/05 09:51:53;;;;;;;6.83;6.03;;;;;;;3.61;100.00;101222.22;4996662;28;20229;-72
2021/01/05 09:54:19;;;;;;;7.83;6.57;;;;;;;3.64;100.00;101237.09;5013147;28;20191;-71
2021/01/05 09:56:55;;;;;;;6.60;5.40;;;;;;;3.67;100.00;101233.97;4993335;28;20229;-71
2021/01/05 09:59:23;;;;;;;7.20;5.57;;;;;;;3.64;100.00;101226.34;4978223;28;20201;-71
2021/01/05 10:01:49;;;;;;;7.10;6.37;;;;;;;3.62;100.00;101220.38;4978128;28;20244;-71
2021/01/05 10:04:17;;;;;;;7.57;6.30;;;;;;;3.56;100.00;101227.41;4994362;28;20202;-72
2021/01/05 10:06:42;;;;;;;6.90;5.87;;;;;;;3.51;100.00;101224.53;4993419;28;20305;-71
2021/01/05 10:09:13;;;;;;;7.40;6.30;;;;;;;3.50;100.00;101222.91;4994296;28;20228;-72
2021/01/05 10:11:40;;;;;;;7.77;6.20;;;;;;;3.54;100.00;101228.66;5009242;28;20264;-72
2021/01/05 10:14:06;;;;;;;6.83;5.80;;;;;;;3.65;100.00;101234.19;4993482;28;20572;-71
2021/01/05 10:16:32;;;;;;;8.50;6.20;;;;;;;3.62;100.00;101226.53;4992566;28;20229;-71
2021/01/05 10:18:58;;;;;;;8.00;6.27;;;;;;;3.72;100.00;101226.94;4976019;28;20218;-71
2021/01/05 10:21:35;;;;;;;8.23;6.07;;;;;;;3.85;100.00;101234.91;4988189;28;20222;-71
2021/01/05 10:24:04;;;;;;;8.50;7.00;;;;;;;3.90;100.00;101235.06;4988430;28;20177;-71
2021/01/05 10:26:30;;;;;;;7.70;6.53;;;;;;;3.89;100.00;101231.56;4976036;28;20228;-71
2021/01/05 10:28:58;;;;;;;10.33;6.60;;;;;;;3.96;100.00;101234.25;4993411;28;20209;-72
2021/01/05 10:31:26;;;;;;;8.90;6.47;;;;;;;3.90;100.00;101221.66;4992970;28;20610;-71
2021/01/05 10:33:52;;;;;;;7.87;6.50;;;;;;;3.88;100.00;101234.47;4992715;28;20193;-71
2021/01/05 10:36:21;;;;;;;8.90;6.57;;;;;;;3.78;100.00;101217.19;4991432;28;20221;-71
2021/01/05 10:38:49;;;;;;;8.23;6.47;;;;;;;3.97;100.00;101235.88;4976590;28;20881;-71
2021/01/05 10:41:16;;;;;;;9.73;7.30;;;;;;;3.90;100.00;101224.34;4987676;28;20299;-71
2021/01/05 10:43:42;;;;;;;8.93;6.70;;;;;;;4.02;100.00;101226.13;4973479;28;20190;-71
2021/01/05 10:46:08;;;;;;;8.70;6.90;;;;;;;3.97;100.00;101225.13;4957728;28;20229;-70
2021/01/05 10:48:36;;;;;;;9.80;6.90;;;;;;;4.02;100.00;101230.69;4975443;28;20213;-71
2021/01/05 10:51:08;;;;;;;11.07;7.23;;;;;;;4.14;100.00;101232.47;4991813;28;20222;-71
2021/01/05 10:53:34;;;;;;;9.90;7.30;;;;;;;4.17;100.00;101231.19;4974584;28;20189;-71
2021/01/05 10:56:00;;;;;;;9.17;6.87;;;;;;;4.16;100.00;101222.31;4975455;28;20707;-71
2021/01/05 10:58:25;;;;;;;10.37;6.90;;;;;;;4.03;100.00;101230.47;4991449;28;20277;-71
2021/01/05 11:00:51;;;;;;;10.33;7.10;;;;;;;3.97;100.00;101225.13;4980940;28;20747;-71
2021/01/05 11:03:17;;;;;;;11.50;7.60;;;;;;;3.97;100.00;101225.94;5008269;28;20242;-71
2021/01/05 11:05:43;;;;;;;10.00;8.30;;;;;;;3.97;100.00;101220.56;4991325;28;20230;-71
2021/01/05 11:08:09;;;;;;;11.20;7.73;;;;;;;4.09;100.00;101224.22;4991523;28;20209;-71
2021/01/05 11:10:34;;;;;;;9.60;7.00;;;;;;;4.14;100.00;101218.19;4971584;28;20214;-71
2021/01/05 11:13:00;;;;;;;10.40;7.40;;;;;;;3.96;100.00;101210.06;4977465;28;20193;-71
2021/01/05 11:15:26;;;;;;;11.87;7.20;;;;;;;3.92;100.00;101216.91;4971612;28;20676;-71
2021/01/05 11:17:52;;;;;;;11.00;7.57;;;;;;;4.00;100.00;101213.97;4990636;28;20285;-71
2021/01/05 11:20:20;;;;;;;9.90;7.20;;;;;;;4.11;100.00;101213.25;4974713;28;20221;-71
2021/01/05 11:22:48;;;;;;;9.90;7.80;;;;;;;4.21;100.00;101206.34;5008131;28;20209;-71
2021/01/05 11:25:17;;;;;;;10.90;7.57;;;;;;;4.08;100.00;101209.13;4974507;28;20188;-71
2021/01/05 11:27:42;;;;;;;11.80;7.87;;;;;;;4.00;100.00;101197.84;4975994;28;20268;-71
2021/01/05 11:30:16;;;;;;;10.67;7.20;;;;;;;3.94;100.00;101201.41;4974155;28;20213;-71
2021/01/05 11:32:41;;;;;;;10.80;7.03;;;;;;;4.05;100.00;101200.72;4975937;28;20209;-71
2021/01/05 11:35:08;;;;;;;12.17;7.83;;;;;;;4.14;100.00;101194.84;4990506;28;20189;-72
2021/01/05 11:37:36;;;;;;;8.83;6.87;;;;;;;4.20;100.00;101185.09;4989432;28;20186;-72
2021/01/05 11:40:02;;;;;;;11.17;6.73;;;;;;;4.07;100.00;101182.50;4991589;28;20209;-71
2021/01/05 11:42:28;;;;;;;9.63;6.60;;;;;;;4.23;100.00;101188.13;4973518;28;20225;-72